createdAt,value
2022-08-19T00:06:47.866Z,100.00
2022-08-19T00:16:49.213Z,100.00
2022-08-19T00:26:51.339Z,100.00
2022-08-19T00:36:52.660Z,100.00
2022-08-19T00:46:57.819Z,100.00
2022-08-19T00:57:00.430Z,100.00
2022-08-19T01:07:01.753Z,100.00
2022-08-19T01:17:03.137Z,100.00
2022-08-19T01:27:04.765Z,100.00
2022-08-19T01:37:09.559Z,100.00
2022-08-19T01:47:10.961Z,100.00
2022-08-19T01:57:12.374Z,100.00
2022-08-19T02:07:13.705Z,100.00
2022-08-19T02:17:15.069Z,100.00
2022-08-19T02:27:16.422Z,100.00
2022-08-19T02:37:36.812Z,100.00
2022-08-19T02:47:38.144Z,100.00
2022-08-19T02:57:39.494Z,100.00
2022-08-19T03:07:40.843Z,100.00
2022-08-19T03:17:42.177Z,100.00
2022-08-19T03:27:43.554Z,100.00
2022-08-19T03:37:44.900Z,100.00
2022-08-19T03:47:46.476Z,100.00
2022-08-19T03:57:49.641Z,100.00
2022-08-19T04:07:50.991Z,100.00
2022-08-19T04:17:52.338Z,100.00
2022-08-19T04:27:53.672Z,100.00
2022-08-19T04:37:55.018Z,100.00
2022-08-19T04:47:58.446Z,100.00
2022-08-19T04:58:00.669Z,100.00
2022-08-19T05:08:02.034Z,100.00
2022-08-19T05:18:21.937Z,100.00
2022-08-19T05:28:23.294Z,100.00
2022-08-19T05:38:24.646Z,100.00
2022-08-19T05:48:26.001Z,100.00
2022-08-19T05:58:28.112Z,100.00
2022-08-19T06:08:34.119Z,100.00
2022-08-19T06:18:36.035Z,100.00
2022-08-19T06:28:37.393Z,100.00
2022-08-19T06:38:38.740Z,97.64
2022-08-19T06:48:45.143Z,94.91
2022-08-19T06:58:47.764Z,93.72
2022-08-19T07:08:49.179Z,93.47
2022-08-19T07:18:50.517Z,87.33
2022-08-19T07:28:53.061Z,81.21
2022-08-19T07:38:55.522Z,75.11
2022-08-19T07:48:56.857Z,72.04
2022-08-19T07:58:58.398Z,71.52
2022-08-19T08:09:12.223Z,71.45
2022-08-19T08:19:25.389Z,70.63
2022-08-19T08:29:27.318Z,70.89
2022-08-19T08:39:36.547Z,68.57
2022-08-19T08:49:37.927Z,67.63
2022-08-19T08:59:39.347Z,63.95
2022-08-19T09:09:42.086Z,61.91
2022-08-19T09:19:43.526Z,62.35
2022-08-19T09:29:44.843Z,59.54
2022-08-19T09:39:46.155Z,55.93
2022-08-19T09:49:49.788Z,57.87
2022-08-19T09:59:51.148Z,56.75
2022-08-19T10:09:52.396Z,53.96
2022-08-19T10:19:55.015Z,53.41
2022-08-19T10:29:57.374Z,53.16
2022-08-19T10:40:00.228Z,51.13
2022-08-19T10:50:20.585Z,52.02
2022-08-19T11:00:21.990Z,51.76
2022-08-19T11:10:24.551Z,50.36
2022-08-19T11:20:26.263Z,49.55
2022-08-19T11:30:28.887Z,46.58
2022-08-19T11:40:30.230Z,48.86
2022-08-19T11:50:31.489Z,45.66
2022-08-19T12:00:32.828Z,45.63
2022-08-19T12:10:34.149Z,43.59
2022-08-19T12:20:35.562Z,42.75
2022-08-19T12:30:37.851Z,40.43
2022-08-19T12:40:41.005Z,38.61
2022-08-19T12:50:42.357Z,36.16
2022-08-19T13:00:43.741Z,35.70
2022-08-19T13:10:45.091Z,35.81
2022-08-19T13:20:52.503Z,35.82
2022-08-19T13:31:13.303Z,34.84
2022-08-19T13:41:15.021Z,34.76
2022-08-19T13:51:17.411Z,35.44
2022-08-19T14:01:18.794Z,36.36
2022-08-19T14:11:20.695Z,36.95
2022-08-19T14:21:22.113Z,36.27
2022-08-19T14:31:27.861Z,35.70
2022-08-19T14:41:31.994Z,36.69
2022-08-19T14:51:33.305Z,37.07
2022-08-19T15:01:35.059Z,36.79
2022-08-19T15:11:36.610Z,36.93
2022-08-19T15:21:37.923Z,36.96
2022-08-19T15:31:40.084Z,36.70
2022-08-19T15:41:41.408Z,36.48
2022-08-19T15:51:43.633Z,37.43
2022-08-19T16:02:03.863Z,36.54
2022-08-19T16:12:05.219Z,36.11
2022-08-19T16:22:06.572Z,36.56
2022-08-19T16:32:07.943Z,35.97
2022-08-19T16:42:09.294Z,37.82
2022-08-19T16:52:10.592Z,40.54
2022-08-19T17:02:12.055Z,39.98
2022-08-19T17:12:13.310Z,40.96
2022-08-19T17:22:14.561Z,40.96
2022-08-19T17:32:15.862Z,40.66
2022-08-19T17:42:25.866Z,39.15
2022-08-19T17:52:27.484Z,39.47
2022-08-19T18:02:29.237Z,38.73
2022-08-19T18:12:31.445Z,38.60
2022-08-19T18:22:35.527Z,38.54
2022-08-19T18:32:38.322Z,38.57
2022-08-19T18:42:58.570Z,38.36
2022-08-19T18:52:59.859Z,38.92
2022-08-19T19:03:01.507Z,40.81
2022-08-19T19:13:02.892Z,42.49
2022-08-19T19:23:04.149Z,43.70
2022-08-19T19:33:05.963Z,45.21
2022-08-19T19:43:07.556Z,47.52
2022-08-19T19:53:09.870Z,49.28
2022-08-19T20:03:11.277Z,50.68
2022-08-19T20:13:15.454Z,52.34
2022-08-19T20:23:16.867Z,54.84
2022-08-19T20:33:18.879Z,57.70
2022-08-19T20:43:20.328Z,59.95
2022-08-19T20:53:23.410Z,61.63
2022-08-19T21:03:24.909Z,63.59
2022-08-19T21:13:26.284Z,65.57
2022-08-19T21:23:27.656Z,68.22
2022-08-19T21:33:31.761Z,70.28
2022-08-19T21:43:33.400Z,72.70
2022-08-19T21:53:34.914Z,74.19
2022-08-19T22:03:36.283Z,75.77
2022-08-19T22:13:39.929Z,76.28
2022-08-19T22:23:41.766Z,77.84
2022-08-19T22:33:43.129Z,79.71
2022-08-19T22:43:47.050Z,81.43
2022-08-19T22:53:48.389Z,83.04
2022-08-19T23:03:49.735Z,84.17
2022-08-19T23:13:51.057Z,85.01
2022-08-19T23:23:53.525Z,87.46
2022-08-19T23:33:54.876Z,89.17
2022-08-19T23:43:56.516Z,92.10
2022-08-19T23:53:57.911Z,94.10
